Stafford Township, New Jersey
Current Conditions -  °F | °C
As of 1:35 PM on Friday 28 Nov 2014 (Local Time) from KMJX Reporting Station
Scattered Clouds Scattered Clouds  
Wind Chill:   Ceiling: Unl
Heat Index:   Visibility: 10mi
Dew Point: -9°   Wind: 7mph
Humidity: 41%   Direction: 330°NNW
Pressure: 30.18"   Gusts: NA
Location:  39.7102°N, 74.2577°W
Report Text: KMJX 281835Z AUTO 33006KT 10SM SCT047 03/M09 A3018 RMK AO1
Loading
Personal Weather Stations






























Interactive Weather Map New forecast layout! Learn more

10-Day Weather Forecast

Advertisements
Track Severe Weather on mobile